sensor_id;sensor_type;location;lat;lon;timestamp;P1;durP1;ratioP1;P2;durP2;ratioP2
60292;SDS011;52402;52.670;6.750;2023-05-08T00:00:38;50.30;;;46.70;;
60292;SDS011;52402;52.670;6.750;2023-05-08T00:03:03;49.35;;;45.83;;
60292;SDS011;52402;52.670;6.750;2023-05-08T00:05:29;49.58;;;46.05;;
60292;SDS011;52402;52.670;6.750;2023-05-08T00:07:55;48.63;;;45.13;;
60292;SDS011;52402;52.670;6.750;2023-05-08T00:10:25;49.67;;;46.17;;
60292;SDS011;52402;52.670;6.750;2023-05-08T00:12:52;49.67;;;46.13;;
60292;SDS011;52402;52.670;6.750;2023-05-08T00:15:17;48.97;;;45.47;;
60292;SDS011;52402;52.670;6.750;2023-05-08T00:17:43;50.08;;;46.50;;
60292;SDS011;52402;52.670;6.750;2023-05-08T00:20:09;49.58;;;46.05;;
60292;SDS011;52402;52.670;6.750;2023-05-08T00:22:35;48.72;;;45.25;;
60292;SDS011;52402;52.670;6.750;2023-05-08T00:25:01;48.45;;;45.00;;
60292;SDS011;52402;52.670;6.750;2023-05-08T00:27:28;49.78;;;46.22;;
60292;SDS011;52402;52.670;6.750;2023-05-08T00:29:54;48.83;;;45.33;;
60292;SDS011;52402;52.670;6.750;2023-05-08T00:32:19;48.42;;;44.97;;
60292;SDS011;52402;52.670;6.750;2023-05-08T00:34:45;50.60;;;47.00;;
60292;SDS011;52402;52.670;6.750;2023-05-08T00:37:11;49.08;;;45.58;;
60292;SDS011;52402;52.670;6.750;2023-05-08T00:39:36;49.47;;;45.97;;
60292;SDS011;52402;52.670;6.750;2023-05-08T00:42:02;48.40;;;44.95;;
60292;SDS011;52402;52.670;6.750;2023-05-08T00:44:28;49.92;;;46.38;;
60292;SDS011;52402;52.670;6.750;2023-05-08T00:46:53;49.22;;;45.72;;
60292;SDS011;52402;52.670;6.750;2023-05-08T00:49:19;49.78;;;46.25;;
60292;SDS011;52402;52.670;6.750;2023-05-08T00:51:45;49.10;;;45.60;;
60292;SDS011;52402;52.670;6.750;2023-05-08T00:54:15;49.08;;;45.58;;
60292;SDS011;52402;52.670;6.750;2023-05-08T00:56:41;49.28;;;45.78;;
60292;SDS011;52402;52.670;6.750;2023-05-08T00:59:08;49.28;;;45.78;;
60292;SDS011;52402;52.670;6.750;2023-05-08T01:01:36;48.78;;;45.30;;
60292;SDS011;52402;52.670;6.750;2023-05-08T01:04:03;49.05;;;45.55;;
60292;SDS011;52402;52.670;6.750;2023-05-08T01:06:29;48.45;;;45.00;;
60292;SDS011;52402;52.670;6.750;2023-05-08T01:08:55;49.45;;;45.92;;
60292;SDS011;52402;52.670;6.750;2023-05-08T01:11:29;49.00;;;45.50;;
60292;SDS011;52402;52.670;6.750;2023-05-08T01:17:04;49.65;;;46.15;;
60292;SDS011;52402;52.670;6.750;2023-05-08T01:22:17;48.22;;;44.80;;
60292;SDS011;52402;52.670;6.750;2023-05-08T01:33:58;48.28;;;44.88;;
60292;SDS011;52402;52.670;6.750;2023-05-08T01:36:36;47.95;;;44.55;;
60292;SDS011;52402;52.670;6.750;2023-05-08T01:41:56;49.70;;;46.20;;
60292;SDS011;52402;52.670;6.750;2023-05-08T01:44:35;48.53;;;45.10;;
60292;SDS011;52402;52.670;6.750;2023-05-08T01:47:05;49.05;;;45.55;;
60292;SDS011;52402;52.670;6.750;2023-05-08T01:49:37;49.05;;;45.58;;
60292;SDS011;52402;52.670;6.750;2023-05-08T01:52:30;48.95;;;45.47;;
60292;SDS011;52402;52.670;6.750;2023-05-08T01:55:53;48.33;;;44.92;;
60292;SDS011;52402;52.670;6.750;2023-05-08T01:57:58;49.05;;;45.55;;
60292;SDS011;52402;52.670;6.750;2023-05-08T02:00:25;49.20;;;45.70;;
60292;SDS011;52402;52.670;6.750;2023-05-08T02:02:55;49.65;;;46.15;;
60292;SDS011;52402;52.670;6.750;2023-05-08T02:05:22;48.05;;;44.65;;
60292;SDS011;52402;52.670;6.750;2023-05-08T02:07:49;49.03;;;45.55;;
60292;SDS011;52402;52.670;6.750;2023-05-08T02:10:16;49.17;;;45.70;;
60292;SDS011;52402;52.670;6.750;2023-05-08T02:12:43;47.78;;;44.38;;
60292;SDS011;52402;52.670;6.750;2023-05-08T02:15:10;48.08;;;44.67;;
60292;SDS011;52402;52.670;6.750;2023-05-08T02:17:38;48.47;;;45.08;;
60292;SDS011;52402;52.670;6.750;2023-05-08T02:20:05;49.22;;;45.72;;
60292;SDS011;52402;52.670;6.750;2023-05-08T02:22:38;48.33;;;44.92;;
60292;SDS011;52402;52.670;6.750;2023-05-08T02:25:07;49.22;;;45.72;;
60292;SDS011;52402;52.670;6.750;2023-05-08T02:27:36;48.53;;;45.13;;
60292;SDS011;52402;52.670;6.750;2023-05-08T02:30:03;48.22;;;44.83;;
60292;SDS011;52402;52.670;6.750;2023-05-08T02:32:30;48.63;;;45.22;;
60292;SDS011;52402;52.670;6.750;2023-05-08T02:34:56;49.55;;;46.05;;
60292;SDS011;52402;52.670;6.750;2023-05-08T02:37:23;48.63;;;45.22;;
60292;SDS011;52402;52.670;6.750;2023-05-08T02:39:51;48.55;;;45.13;;
60292;SDS011;52402;52.670;6.750;2023-05-08T02:42:20;49.60;;;46.10;;
60292;SDS011;52402;52.670;6.750;2023-05-08T02:44:46;49.95;;;46.45;;
60292;SDS011;52402;52.670;6.750;2023-05-08T02:47:20;49.55;;;46.05;;
60292;SDS011;52402;52.670;6.750;2023-05-08T02:49:49;48.50;;;45.10;;
60292;SDS011;52402;52.670;6.750;2023-05-08T02:52:22;48.78;;;45.35;;
60292;SDS011;52402;52.670;6.750;2023-05-08T02:55:00;49.38;;;45.88;;
60292;SDS011;52402;52.670;6.750;2023-05-08T02:57:43;48.88;;;45.45;;
60292;SDS011;52402;52.670;6.750;2023-05-08T03:00:26;50.03;;;46.50;;
60292;SDS011;52402;52.670;6.750;2023-05-08T03:03:08;49.35;;;45.85;;
60292;SDS011;52402;52.670;6.750;2023-05-08T03:05:42;49.67;;;46.17;;
60292;SDS011;52402;52.670;6.750;2023-05-08T03:08:14;49.97;;;46.47;;
60292;SDS011;52402;52.670;6.750;2023-05-08T03:10:44;49.13;;;45.67;;
60292;SDS011;52402;52.670;6.750;2023-05-08T03:13:13;49.40;;;45.90;;
60292;SDS011;52402;52.670;6.750;2023-05-08T03:15:41;49.17;;;45.72;;
60292;SDS011;52402;52.670;6.750;2023-05-08T03:18:11;49.33;;;45.85;;
60292;SDS011;52402;52.670;6.750;2023-05-08T03:20:42;48.78;;;45.35;;
60292;SDS011;52402;52.670;6.750;2023-05-08T03:23:10;49.85;;;46.35;;
60292;SDS011;52402;52.670;6.750;2023-05-08T03:25:38;48.53;;;45.13;;
60292;SDS011;52402;52.670;6.750;2023-05-08T03:28:06;48.63;;;45.22;;
60292;SDS011;52402;52.670;6.750;2023-05-08T03:30:37;48.22;;;44.83;;
60292;SDS011;52402;52.670;6.750;2023-05-08T03:33:04;48.08;;;44.67;;
60292;SDS011;52402;52.670;6.750;2023-05-08T03:35:35;48.58;;;45.17;;
60292;SDS011;52402;52.670;6.750;2023-05-08T03:38:01;49.95;;;46.42;;
60292;SDS011;52402;52.670;6.750;2023-05-08T03:40:28;50.17;;;46.67;;
60292;SDS011;52402;52.670;6.750;2023-05-08T03:42:54;48.80;;;45.40;;
60292;SDS011;52402;52.670;6.750;2023-05-08T03:45:20;48.72;;;45.33;;
60292;SDS011;52402;52.670;6.750;2023-05-08T03:47:47;48.42;;;45.03;;
60292;SDS011;52402;52.670;6.750;2023-05-08T03:50:15;48.38;;;44.97;;
60292;SDS011;52402;52.670;6.750;2023-05-08T03:52:41;48.45;;;45.05;;
60292;SDS011;52402;52.670;6.750;2023-05-08T03:55:07;49.13;;;45.70;;
60292;SDS011;52402;52.670;6.750;2023-05-08T03:57:34;49.67;;;46.17;;
60292;SDS011;52402;52.670;6.750;2023-05-08T04:00:08;50.35;;;46.85;;
60292;SDS011;52402;52.670;6.750;2023-05-08T04:02:46;49.17;;;45.75;;
60292;SDS011;52402;52.670;6.750;2023-05-08T04:05:22;48.85;;;45.45;;
60292;SDS011;52402;52.670;6.750;2023-05-08T04:08:01;48.47;;;45.08;;
60292;SDS011;52402;52.670;6.750;2023-05-08T04:10:36;48.70;;;45.30;;
60292;SDS011;52402;52.670;6.750;2023-05-08T04:15:38;49.20;;;45.78;;
60292;SDS011;52402;52.670;6.750;2023-05-08T04:18:27;49.33;;;45.88;;
60292;SDS011;52402;52.670;6.750;2023-05-08T04:20:54;49.80;;;46.30;;
60292;SDS011;52402;52.670;6.750;2023-05-08T04:23:21;49.20;;;45.75;;
60292;SDS011;52402;52.670;6.750;2023-05-08T04:25:49;49.63;;;46.13;;
60292;SDS011;52402;52.670;6.750;2023-05-08T04:28:17;49.15;;;45.70;;
60292;SDS011;52402;52.670;6.750;2023-05-08T04:30:43;48.67;;;45.28;;
60292;SDS011;52402;52.670;6.750;2023-05-08T04:33:09;48.38;;;44.97;;
60292;SDS011;52402;52.670;6.750;2023-05-08T04:35:35;49.08;;;45.65;;
60292;SDS011;52402;52.670;6.750;2023-05-08T04:38:01;48.95;;;45.53;;
60292;SDS011;52402;52.670;6.750;2023-05-08T04:40:27;49.35;;;45.88;;
60292;SDS011;52402;52.670;6.750;2023-05-08T04:42:53;48.97;;;45.55;;
60292;SDS011;52402;52.670;6.750;2023-05-08T04:45:19;48.63;;;45.22;;
60292;SDS011;52402;52.670;6.750;2023-05-08T04:47:45;49.08;;;45.65;;
60292;SDS011;52402;52.670;6.750;2023-05-08T04:50:10;48.42;;;45.03;;
60292;SDS011;52402;52.670;6.750;2023-05-08T04:52:36;49.53;;;46.08;;
60292;SDS011;52402;52.670;6.750;2023-05-08T04:55:02;49.40;;;46.00;;
60292;SDS011;52402;52.670;6.750;2023-05-08T04:57:32;48.80;;;45.40;;
60292;SDS011;52402;52.670;6.750;2023-05-08T04:59:57;49.15;;;45.70;;
60292;SDS011;52402;52.670;6.750;2023-05-08T05:02:24;48.42;;;45.03;;
60292;SDS011;52402;52.670;6.750;2023-05-08T05:04:50;48.70;;;45.30;;
60292;SDS011;52402;52.670;6.750;2023-05-08T05:07:16;48.92;;;45.53;;
60292;SDS011;52402;52.670;6.750;2023-05-08T05:09:42;48.08;;;44.72;;
60292;SDS011;52402;52.670;6.750;2023-05-08T05:12:07;48.22;;;44.85;;
60292;SDS011;52402;52.670;6.750;2023-05-08T05:14:33;48.75;;;45.35;;
60292;SDS011;52402;52.670;6.750;2023-05-08T05:17:00;48.58;;;45.17;;
60292;SDS011;52402;52.670;6.750;2023-05-08T05:19:26;49.30;;;45.90;;
60292;SDS011;52402;52.670;6.750;2023-05-08T05:21:51;48.70;;;45.30;;
60292;SDS011;52402;52.670;6.750;2023-05-08T05:24:17;49.22;;;45.80;;
60292;SDS011;52402;52.670;6.750;2023-05-08T05:26:43;48.38;;;45.00;;
60292;SDS011;52402;52.670;6.750;2023-05-08T05:29:08;48.63;;;45.22;;
60292;SDS011;52402;52.670;6.750;2023-05-08T05:31:34;48.38;;;45.00;;
60292;SDS011;52402;52.670;6.750;2023-05-08T05:33:59;48.92;;;45.53;;
60292;SDS011;52402;52.670;6.750;2023-05-08T05:36:25;48.70;;;45.30;;
60292;SDS011;52402;52.670;6.750;2023-05-08T05:38:50;48.13;;;44.78;;
60292;SDS011;52402;52.670;6.750;2023-05-08T05:41:16;49.42;;;46.00;;
60292;SDS011;52402;52.670;6.750;2023-05-08T05:43:42;48.60;;;45.20;;
60292;SDS011;52402;52.670;6.750;2023-05-08T05:46:08;48.03;;;44.67;;
60292;SDS011;52402;52.670;6.750;2023-05-08T05:48:34;49.70;;;46.25;;
60292;SDS011;52402;52.670;6.750;2023-05-08T05:51:00;48.88;;;45.47;;
60292;SDS011;52402;52.670;6.750;2023-05-08T05:53:26;48.97;;;45.58;;
60292;SDS011;52402;52.670;6.750;2023-05-08T05:55:52;49.15;;;45.75;;
60292;SDS011;52402;52.670;6.750;2023-05-08T05:58:17;49.03;;;45.63;;
60292;SDS011;52402;52.670;6.750;2023-05-08T06:00:43;49.30;;;45.90;;
60292;SDS011;52402;52.670;6.750;2023-05-08T06:03:09;48.55;;;45.15;;
60292;SDS011;52402;52.670;6.750;2023-05-08T06:05:36;49.05;;;45.65;;
60292;SDS011;52402;52.670;6.750;2023-05-08T06:08:01;48.67;;;45.28;;
60292;SDS011;52402;52.670;6.750;2023-05-08T06:10:27;48.70;;;45.30;;
60292;SDS011;52402;52.670;6.750;2023-05-08T06:12:53;49.15;;;45.75;;
60292;SDS011;52402;52.670;6.750;2023-05-08T06:15:18;48.05;;;44.70;;
60292;SDS011;52402;52.670;6.750;2023-05-08T06:17:45;49.28;;;45.88;;
60292;SDS011;52402;52.670;6.750;2023-05-08T06:20:10;49.03;;;45.63;;
60292;SDS011;52402;52.670;6.750;2023-05-08T06:22:36;48.85;;;45.45;;
60292;SDS011;52402;52.670;6.750;2023-05-08T06:25:04;48.25;;;44.90;;
60292;SDS011;52402;52.670;6.750;2023-05-08T06:27:31;48.53;;;45.15;;
60292;SDS011;52402;52.670;6.750;2023-05-08T06:29:58;48.35;;;44.97;;
60292;SDS011;52402;52.670;6.750;2023-05-08T06:32:23;48.50;;;45.13;;
60292;SDS011;52402;52.670;6.750;2023-05-08T06:34:49;48.72;;;45.33;;
60292;SDS011;52402;52.670;6.750;2023-05-08T06:37:15;48.33;;;44.95;;
60292;SDS011;52402;52.670;6.750;2023-05-08T06:39:40;49.25;;;45.83;;
60292;SDS011;52402;52.670;6.750;2023-05-08T06:42:06;48.53;;;45.13;;
60292;SDS011;52402;52.670;6.750;2023-05-08T06:44:32;49.03;;;45.63;;
60292;SDS011;52402;52.670;6.750;2023-05-08T06:46:58;48.85;;;45.45;;
60292;SDS011;52402;52.670;6.750;2023-05-08T06:49:23;49.15;;;45.75;;
60292;SDS011;52402;52.670;6.750;2023-05-08T06:51:49;49.33;;;45.90;;
60292;SDS011;52402;52.670;6.750;2023-05-08T06:54:15;48.45;;;45.08;;
60292;SDS011;52402;52.670;6.750;2023-05-08T06:56:41;50.08;;;46.58;;
60292;SDS011;52402;52.670;6.750;2023-05-08T06:59:06;48.88;;;45.47;;
60292;SDS011;52402;52.670;6.750;2023-05-08T07:01:32;49.10;;;45.70;;
60292;SDS011;52402;52.670;6.750;2023-05-08T07:03:58;48.15;;;44.80;;
60292;SDS011;52402;52.670;6.750;2023-05-08T07:06:24;49.72;;;46.25;;
60292;SDS011;52402;52.670;6.750;2023-05-08T07:08:50;48.55;;;45.15;;
60292;SDS011;52402;52.670;6.750;2023-05-08T07:11:15;48.95;;;45.55;;
60292;SDS011;52402;52.670;6.750;2023-05-08T07:13:41;48.72;;;45.33;;
60292;SDS011;52402;52.670;6.750;2023-05-08T07:16:12;48.60;;;45.20;;
60292;SDS011;52402;52.670;6.750;2023-05-08T07:18:38;49.20;;;45.80;;
60292;SDS011;52402;52.670;6.750;2023-05-08T07:21:03;49.25;;;45.85;;
60292;SDS011;52402;52.670;6.750;2023-05-08T07:23:29;48.75;;;45.35;;
60292;SDS011;52402;52.670;6.750;2023-05-08T07:25:55;48.80;;;45.40;;
60292;SDS011;52402;52.670;6.750;2023-05-08T07:28:22;49.65;;;46.17;;
60292;SDS011;52402;52.670;6.750;2023-05-08T07:30:47;49.72;;;46.30;;
60292;SDS011;52402;52.670;6.750;2023-05-08T07:33:13;49.15;;;45.75;;
60292;SDS011;52402;52.670;6.750;2023-05-08T07:35:39;49.28;;;45.88;;
60292;SDS011;52402;52.670;6.750;2023-05-08T07:38:05;49.00;;;45.60;;
60292;SDS011;52402;52.670;6.750;2023-05-08T07:40:31;49.80;;;46.33;;
60292;SDS011;52402;52.670;6.750;2023-05-08T07:42:57;50.13;;;46.63;;
60292;SDS011;52402;52.670;6.750;2023-05-08T07:45:22;49.63;;;46.17;;
60292;SDS011;52402;52.670;6.750;2023-05-08T07:47:52;50.40;;;46.90;;
60292;SDS011;52402;52.670;6.750;2023-05-08T07:50:19;50.35;;;46.85;;
60292;SDS011;52402;52.670;6.750;2023-05-08T07:52:45;48.78;;;45.38;;
60292;SDS011;52402;52.670;6.750;2023-05-08T07:55:11;50.20;;;46.70;;
60292;SDS011;52402;52.670;6.750;2023-05-08T07:57:40;49.03;;;45.63;;
60292;SDS011;52402;52.670;6.750;2023-05-08T08:00:09;50.00;;;46.53;;
60292;SDS011;52402;52.670;6.750;2023-05-08T08:02:36;49.20;;;45.80;;
60292;SDS011;52402;52.670;6.750;2023-05-08T08:05:02;49.92;;;46.42;;
60292;SDS011;52402;52.670;6.750;2023-05-08T08:07:29;49.55;;;46.08;;
60292;SDS011;52402;52.670;6.750;2023-05-08T08:09:56;49.97;;;46.47;;
60292;SDS011;52402;52.670;6.750;2023-05-08T08:12:26;50.08;;;46.58;;
60292;SDS011;52402;52.670;6.750;2023-05-08T08:14:52;49.47;;;46.05;;
60292;SDS011;52402;52.670;6.750;2023-05-08T08:17:18;49.70;;;46.20;;
60292;SDS011;52402;52.670;6.750;2023-05-08T08:19:43;50.40;;;46.90;;
60292;SDS011;52402;52.670;6.750;2023-05-08T08:22:09;49.70;;;46.25;;
60292;SDS011;52402;52.670;6.750;2023-05-08T08:24:35;50.17;;;46.67;;
60292;SDS011;52402;52.670;6.750;2023-05-08T08:27:00;48.95;;;45.55;;
60292;SDS011;52402;52.670;6.750;2023-05-08T08:29:26;49.85;;;46.40;;
60292;SDS011;52402;52.670;6.750;2023-05-08T08:31:52;49.92;;;46.45;;
60292;SDS011;52402;52.670;6.750;2023-05-08T08:34:17;49.35;;;45.90;;
60292;SDS011;52402;52.670;6.750;2023-05-08T08:36:43;50.83;;;47.28;;
60292;SDS011;52402;52.670;6.750;2023-05-08T08:39:09;49.35;;;45.90;;
60292;SDS011;52402;52.670;6.750;2023-05-08T08:41:34;49.28;;;45.85;;
60292;SDS011;52402;52.670;6.750;2023-05-08T08:44:00;49.92;;;46.42;;
60292;SDS011;52402;52.670;6.750;2023-05-08T08:46:26;49.67;;;46.20;;
60292;SDS011;52402;52.670;6.750;2023-05-08T08:48:52;49.80;;;46.33;;
60292;SDS011;52402;52.670;6.750;2023-05-08T08:51:25;50.05;;;46.55;;
60292;SDS011;52402;52.670;6.750;2023-05-08T08:54:02;50.67;;;47.17;;
60292;SDS011;52402;52.670;6.750;2023-05-08T08:56:33;50.00;;;46.50;;
60292;SDS011;52402;52.670;6.750;2023-05-08T08:59:02;49.65;;;46.20;;
60292;SDS011;52402;52.670;6.750;2023-05-08T09:01:30;50.10;;;46.60;;
60292;SDS011;52402;52.670;6.750;2023-05-08T09:04:00;51.13;;;47.60;;
60292;SDS011;52402;52.670;6.750;2023-05-08T09:06:26;50.50;;;47.00;;
60292;SDS011;52402;52.670;6.750;2023-05-08T09:08:53;49.88;;;46.45;;
60292;SDS011;52402;52.670;6.750;2023-05-08T09:11:20;50.28;;;46.78;;
60292;SDS011;52402;52.670;6.750;2023-05-08T09:13:46;50.55;;;47.05;;
60292;SDS011;52402;52.670;6.750;2023-05-08T09:16:12;50.08;;;46.63;;
60292;SDS011;52402;52.670;6.750;2023-05-08T09:18:37;50.28;;;46.80;;
60292;SDS011;52402;52.670;6.750;2023-05-08T09:21:04;49.63;;;46.20;;
60292;SDS011;52402;52.670;6.750;2023-05-08T09:23:30;48.90;;;45.50;;
60292;SDS011;52402;52.670;6.750;2023-05-08T09:25:56;50.83;;;47.33;;
60292;SDS011;52402;52.670;6.750;2023-05-08T09:28:22;50.40;;;46.92;;
60292;SDS011;52402;52.670;6.750;2023-05-08T09:33:16;50.08;;;46.60;;
60292;SDS011;52402;52.670;6.750;2023-05-08T09:35:42;50.65;;;47.15;;
60292;SDS011;52402;52.670;6.750;2023-05-08T09:38:07;49.63;;;46.20;;
60292;SDS011;52402;52.670;6.750;2023-05-08T09:40:33;49.83;;;46.42;;
60292;SDS011;52402;52.670;6.750;2023-05-08T09:43:10;50.30;;;46.80;;
60292;SDS011;52402;52.670;6.750;2023-05-08T09:45:40;48.97;;;45.58;;
60292;SDS011;52402;52.670;6.750;2023-05-08T09:48:06;49.05;;;45.65;;
60292;SDS011;52402;52.670;6.750;2023-05-08T09:50:34;49.60;;;46.20;;
60292;SDS011;52402;52.670;6.750;2023-05-08T09:53:00;50.03;;;46.53;;
60292;SDS011;52402;52.670;6.750;2023-05-08T09:55:26;50.05;;;46.55;;
60292;SDS011;52402;52.670;6.750;2023-05-08T10:00:18;50.95;;;47.35;;
60292;SDS011;52402;52.670;6.750;2023-05-08T10:02:54;49.88;;;46.30;;
60292;SDS011;52402;52.670;6.750;2023-05-08T10:05:26;50.45;;;46.85;;
60292;SDS011;52402;52.670;6.750;2023-05-08T10:07:52;50.30;;;46.70;;
60292;SDS011;52402;52.670;6.750;2023-05-08T10:10:21;50.58;;;46.97;;
60292;SDS011;52402;52.670;6.750;2023-05-08T10:12:50;50.50;;;46.90;;
60292;SDS011;52402;52.670;6.750;2023-05-08T10:15:17;49.78;;;46.25;;
60292;SDS011;52402;52.670;6.750;2023-05-08T10:17:50;51.20;;;47.50;;
60292;SDS011;52402;52.670;6.750;2023-05-08T10:20:19;50.83;;;47.15;;
60292;SDS011;52402;52.670;6.750;2023-05-08T10:22:46;51.28;;;47.58;;
60292;SDS011;52402;52.670;6.750;2023-05-08T10:25:16;51.13;;;47.42;;
60292;SDS011;52402;52.670;6.750;2023-05-08T10:27:46;50.33;;;46.65;;
60292;SDS011;52402;52.670;6.750;2023-05-08T10:30:25;51.20;;;47.50;;
60292;SDS011;52402;52.670;6.750;2023-05-08T10:32:52;50.83;;;47.13;;
60292;SDS011;52402;52.670;6.750;2023-05-08T10:35:19;50.97;;;47.28;;
60292;SDS011;52402;52.670;6.750;2023-05-08T10:37:46;51.95;;;48.17;;
60292;SDS011;52402;52.670;6.750;2023-05-08T10:40:13;50.45;;;46.83;;
60292;SDS011;52402;52.670;6.750;2023-05-08T10:42:40;50.60;;;46.92;;
60292;SDS011;52402;52.670;6.750;2023-05-08T10:45:06;49.63;;;46.03;;
60292;SDS011;52402;52.670;6.750;2023-05-08T10:50:55;50.55;;;46.90;;
60292;SDS011;52402;52.670;6.750;2023-05-08T10:53:29;50.73;;;47.03;;
60292;SDS011;52402;52.670;6.750;2023-05-08T10:56:02;50.70;;;47.03;;
60292;SDS011;52402;52.670;6.750;2023-05-08T10:58:29;51.25;;;47.55;;
60292;SDS011;52402;52.670;6.750;2023-05-08T11:03:27;51.55;;;47.85;;
60292;SDS011;52402;52.670;6.750;2023-05-08T11:05:55;50.95;;;47.25;;
60292;SDS011;52402;52.670;6.750;2023-05-08T11:08:23;51.75;;;48.05;;
60292;SDS011;52402;52.670;6.750;2023-05-08T11:10:58;51.60;;;47.80;;
60292;SDS011;52402;52.670;6.750;2023-05-08T11:13:34;52.83;;;49.00;;
60292;SDS011;52402;52.670;6.750;2023-05-08T11:16:02;51.25;;;47.55;;
60292;SDS011;52402;52.670;6.750;2023-05-08T11:18:30;52.05;;;48.25;;
60292;SDS011;52402;52.670;6.750;2023-05-08T11:23:27;52.13;;;48.33;;
60292;SDS011;52402;52.670;6.750;2023-05-08T11:28:27;50.97;;;47.28;;
60292;SDS011;52402;52.670;6.750;2023-05-08T11:30:55;51.77;;;48.03;;
60292;SDS011;52402;52.670;6.750;2023-05-08T11:33:21;51.92;;;48.15;;
60292;SDS011;52402;52.670;6.750;2023-05-08T11:35:54;50.33;;;46.70;;
60292;SDS011;52402;52.670;6.750;2023-05-08T11:38:25;50.63;;;46.92;;
60292;SDS011;52402;52.670;6.750;2023-05-08T11:40:55;51.00;;;47.30;;
60292;SDS011;52402;52.670;6.750;2023-05-08T11:46:41;50.97;;;47.28;;
60292;SDS011;52402;52.670;6.750;2023-05-08T11:51:44;50.95;;;47.25;;
60292;SDS011;52402;52.670;6.750;2023-05-08T11:54:11;49.83;;;46.22;;
60292;SDS011;52402;52.670;6.750;2023-05-08T11:56:38;50.80;;;47.10;;
60292;SDS011;52402;52.670;6.750;2023-05-08T11:59:04;50.95;;;47.25;;
60292;SDS011;52402;52.670;6.750;2023-05-08T12:01:31;50.30;;;46.70;;
60292;SDS011;52402;52.670;6.750;2023-05-08T12:04:00;49.85;;;46.25;;
60292;SDS011;52402;52.670;6.750;2023-05-08T12:06:33;49.17;;;45.67;;
60292;SDS011;52402;52.670;6.750;2023-05-08T12:09:00;50.58;;;46.92;;
60292;SDS011;52402;52.670;6.750;2023-05-08T12:11:26;51.97;;;48.20;;
60292;SDS011;52402;52.670;6.750;2023-05-08T12:13:52;50.30;;;46.67;;
60292;SDS011;52402;52.670;6.750;2023-05-08T12:16:18;49.05;;;45.55;;
60292;SDS011;52402;52.670;6.750;2023-05-08T12:18:47;51.20;;;47.50;;
60292;SDS011;52402;52.670;6.750;2023-05-08T12:21:14;49.25;;;45.75;;
60292;SDS011;52402;52.670;6.750;2023-05-08T12:23:40;50.88;;;47.17;;
60292;SDS011;52402;52.670;6.750;2023-05-08T12:26:06;52.13;;;48.35;;
60292;SDS011;52402;52.670;6.750;2023-05-08T12:28:32;50.25;;;46.63;;
60292;SDS011;52402;52.670;6.750;2023-05-08T12:30:58;51.72;;;47.97;;
60292;SDS011;52402;52.670;6.750;2023-05-08T12:33:27;51.95;;;48.15;;
60292;SDS011;52402;52.670;6.750;2023-05-08T12:35:54;52.50;;;48.70;;
60292;SDS011;52402;52.670;6.750;2023-05-08T12:38:24;50.75;;;47.05;;
60292;SDS011;52402;52.670;6.750;2023-05-08T12:40:50;50.85;;;47.15;;
60292;SDS011;52402;52.670;6.750;2023-05-08T12:43:17;51.25;;;47.55;;
60292;SDS011;52402;52.670;6.750;2023-05-08T12:45:43;50.97;;;47.28;;
60292;SDS011;52402;52.670;6.750;2023-05-08T12:48:09;51.75;;;48.05;;
60292;SDS011;52402;52.670;6.750;2023-05-08T12:50:43;51.03;;;47.33;;
60292;SDS011;52402;52.670;6.750;2023-05-08T12:53:10;51.72;;;48.03;;
60292;SDS011;52402;52.670;6.750;2023-05-08T12:55:37;52.75;;;48.95;;
60292;SDS011;52402;52.670;6.750;2023-05-08T12:58:05;52.10;;;48.30;;
60292;SDS011;52402;52.670;6.750;2023-05-08T13:00:38;50.83;;;47.13;;
60292;SDS011;52402;52.670;6.750;2023-05-08T13:03:09;50.60;;;46.90;;
60292;SDS011;52402;52.670;6.750;2023-05-08T13:05:39;51.65;;;47.95;;
60292;SDS011;52402;52.670;6.750;2023-05-08T13:08:07;52.00;;;48.20;;
60292;SDS011;52402;52.670;6.750;2023-05-08T13:13:30;51.35;;;47.65;;
60292;SDS011;52402;52.670;6.750;2023-05-08T13:16:00;52.40;;;48.60;;
60292;SDS011;52402;52.670;6.750;2023-05-08T13:18:30;51.60;;;47.88;;
60292;SDS011;52402;52.670;6.750;2023-05-08T13:20:56;51.80;;;48.05;;
60292;SDS011;52402;52.670;6.750;2023-05-08T13:23:22;51.22;;;47.53;;
60292;SDS011;52402;52.670;6.750;2023-05-08T13:25:48;50.92;;;47.20;;
60292;SDS011;52402;52.670;6.750;2023-05-08T13:28:14;51.75;;;48.03;;
60292;SDS011;52402;52.670;6.750;2023-05-08T13:30:40;50.53;;;46.90;;
60292;SDS011;52402;52.670;6.750;2023-05-08T13:33:06;50.75;;;47.10;;
60292;SDS011;52402;52.670;6.750;2023-05-08T13:35:32;52.00;;;48.25;;
60292;SDS011;52402;52.670;6.750;2023-05-08T13:37:58;50.88;;;47.22;;
60292;SDS011;52402;52.670;6.750;2023-05-08T13:40:24;50.03;;;46.42;;
60292;SDS011;52402;52.670;6.750;2023-05-08T13:42:50;51.10;;;47.40;;
60292;SDS011;52402;52.670;6.750;2023-05-08T13:45:16;51.55;;;47.85;;
60292;SDS011;52402;52.670;6.750;2023-05-08T13:47:43;48.55;;;45.05;;
60292;SDS011;52402;52.670;6.750;2023-05-08T13:50:09;47.80;;;44.60;;
60292;SDS011;52402;52.670;6.750;2023-05-08T13:52:36;46.10;;;43.00;;
60292;SDS011;52402;52.670;6.750;2023-05-08T13:55:10;46.35;;;43.05;;
60292;SDS011;52402;52.670;6.750;2023-05-08T13:57:36;47.08;;;43.75;;
60292;SDS011;52402;52.670;6.750;2023-05-08T14:00:03;48.05;;;44.65;;
60292;SDS011;52402;52.670;6.750;2023-05-08T14:02:30;47.80;;;44.40;;
60292;SDS011;52402;52.670;6.750;2023-05-08T14:04:56;46.58;;;43.28;;
60292;SDS011;52402;52.670;6.750;2023-05-08T14:07:22;47.20;;;43.90;;
60292;SDS011;52402;52.670;6.750;2023-05-08T14:09:47;46.63;;;43.33;;
60292;SDS011;52402;52.670;6.750;2023-05-08T14:12:13;47.50;;;44.13;;
60292;SDS011;52402;52.670;6.750;2023-05-08T14:14:39;47.03;;;43.72;;
60292;SDS011;52402;52.670;6.750;2023-05-08T14:17:05;46.88;;;43.58;;
60292;SDS011;52402;52.670;6.750;2023-05-08T14:19:31;46.95;;;43.65;;
60292;SDS011;52402;52.670;6.750;2023-05-08T14:21:58;46.67;;;43.38;;
60292;SDS011;52402;52.670;6.750;2023-05-08T14:24:23;46.53;;;43.22;;
60292;SDS011;52402;52.670;6.750;2023-05-08T14:26:49;47.28;;;43.90;;
60292;SDS011;52402;52.670;6.750;2023-05-08T14:29:15;45.90;;;42.63;;
60292;SDS011;52402;52.670;6.750;2023-05-08T14:31:42;47.28;;;43.88;;
60292;SDS011;52402;52.670;6.750;2023-05-08T14:34:08;46.80;;;43.50;;
60292;SDS011;52402;52.670;6.750;2023-05-08T14:36:34;46.50;;;43.20;;
60292;SDS011;52402;52.670;6.750;2023-05-08T14:39:00;46.80;;;43.50;;
60292;SDS011;52402;52.670;6.750;2023-05-08T14:41:29;47.63;;;44.22;;
60292;SDS011;52402;52.670;6.750;2023-05-08T14:43:55;47.05;;;43.75;;
60292;SDS011;52402;52.670;6.750;2023-05-08T14:46:21;47.45;;;44.05;;
60292;SDS011;52402;52.670;6.750;2023-05-08T14:48:47;47.25;;;43.95;;
60292;SDS011;52402;52.670;6.750;2023-05-08T14:51:13;47.75;;;44.35;;
60292;SDS011;52402;52.670;6.750;2023-05-08T14:53:39;48.10;;;44.70;;
60292;SDS011;52402;52.670;6.750;2023-05-08T14:56:05;48.15;;;44.75;;
60292;SDS011;52402;52.670;6.750;2023-05-08T14:58:31;46.95;;;43.65;;
60292;SDS011;52402;52.670;6.750;2023-05-08T15:00:56;47.08;;;43.78;;
60292;SDS011;52402;52.670;6.750;2023-05-08T15:03:22;47.63;;;44.25;;
60292;SDS011;52402;52.670;6.750;2023-05-08T15:05:48;47.22;;;43.92;;
60292;SDS011;52402;52.670;6.750;2023-05-08T15:08:13;46.53;;;43.22;;